Time;durP1;ratioP1;P1;durP2;ratioP2;P2;SDS_P1;SDS_P2;PMS_P1;PMS_P2;Temp;Humidity;BMP_temperature;BMP_pressure;BME280_temperature;BME280_humidity;BME280_pressure;Samples;Min_cycle;Max_cycle;Signal;HPM_P1;HPM_P2
2021/12/04 00:01:55;;;;;;;31.17;21.13;;;4.20;99.90;;;;;;4986588;28;20034;-61
2021/12/04 00:04:26;;;;;;;33.97;21.38;;;4.20;99.90;;;;;;4996682;28;20030;-60
2021/12/04 00:06:51;;;;;;;30.38;20.10;;;4.30;99.90;;;;;;4978920;28;20400;-61
2021/12/04 00:09:19;;;;;;;29.73;20.08;;;4.30;99.90;;;;;;4988562;28;20468;-61
2021/12/04 00:12:06;;;;;;;29.95;19.48;;;4.30;99.90;;;;;;4995845;28;20022;-61
2021/12/04 00:14:32;;;;;;;30.45;20.85;;;4.30;99.90;;;;;;4986327;28;20514;-61
2021/12/04 00:16:58;;;;;;;33.28;21.25;;;4.30;99.90;;;;;;4986713;28;20121;-59
2021/12/04 00:19:25;;;;;;;34.67;21.88;;;4.30;99.90;;;;;;4994735;28;20136;-60
2021/12/04 00:21:52;;;;;;;31.83;19.33;;;4.30;99.90;;;;;;4987027;28;20052;-62
2021/12/04 00:24:18;;;;;;;32.95;20.98;;;4.30;99.90;;;;;;4984077;28;20061;-61
2021/12/04 00:26:44;;;;;;;31.45;20.75;;;4.30;99.90;;;;;;4987575;28;20030;-60
2021/12/04 00:29:11;;;;;;;36.45;22.33;;;4.30;99.90;;;;;;4982704;28;20492;-61
2021/12/04 00:31:37;;;;;;;38.25;23.50;;;4.30;99.90;;;;;;4990939;28;20069;-59
2021/12/04 00:34:03;;;;;;;38.22;23.08;;;4.30;99.90;;;;;;4996070;28;20092;-59
2021/12/04 00:49:51;;;;;;;38.50;23.30;;;4.30;99.90;;;;;;4989167;28;20077;-59
2021/12/04 00:52:17;;;;;;;39.55;21.67;;;4.30;99.90;;;;;;4989553;28;20058;-59
2021/12/04 00:54:44;;;;;;;38.70;22.63;;;4.30;99.90;;;;;;4986122;28;20034;-59
2021/12/04 00:57:10;;;;;;;35.53;22.25;;;4.30;99.90;;;;;;4987692;28;20389;-60
2021/12/04 00:59:35;;;;;;;36.45;21.55;;;4.30;99.90;;;;;;4999791;28;20034;-59
2021/12/04 01:02:01;;;;;;;37.17;22.02;;;4.30;99.90;;;;;;4988970;28;20523;-60
2021/12/04 01:04:27;;;;;;;34.00;21.77;;;4.30;99.90;;;;;;4987604;28;20046;-61
2021/12/04 01:06:53;;;;;;;36.75;21.08;;;4.30;99.90;;;;;;4986922;28;20428;-61
2021/12/04 01:09:22;;;;;;;35.80;22.08;;;4.30;99.90;;;;;;4975638;28;20066;-61
2021/12/04 01:11:48;;;;;;;38.63;23.00;;;4.30;99.90;;;;;;4989896;28;20946;-60
2021/12/04 01:14:18;;;;;;;38.45;23.05;;;4.30;99.90;;;;;;4987150;28;20038;-60
2021/12/04 01:16:45;;;;;;;33.67;21.63;;;4.30;99.90;;;;;;4988656;28;20437;-61
2021/12/04 01:19:14;;;;;;;34.95;22.42;;;4.30;99.90;;;;;;4987534;28;20149;-61
2021/12/04 01:21:40;;;;;;;37.08;22.15;;;4.30;99.90;;;;;;4973758;28;20031;-62
2021/12/04 01:24:06;;;;;;;34.80;22.80;;;4.30;99.90;;;;;;4989865;28;20030;-62
2021/12/04 01:26:31;;;;;;;37.53;22.05;;;4.30;99.90;;;;;;4989690;28;20027;-62
2021/12/04 01:28:57;;;;;;;32.65;20.48;;;4.40;99.90;;;;;;4999800;28;20589;-62
2021/12/04 01:31:23;;;;;;;33.17;20.58;;;4.40;99.90;;;;;;5001472;28;20499;-62
2021/12/04 01:33:49;;;;;;;32.85;21.73;;;4.40;99.90;;;;;;5001140;28;20472;-62
2021/12/04 01:36:15;;;;;;;33.60;22.30;;;4.40;99.90;;;;;;5002637;28;20023;-62
2021/12/04 01:38:41;;;;;;;34.85;22.48;;;4.40;99.90;;;;;;4999292;28;20488;-63
2021/12/04 01:41:06;;;;;;;34.60;22.02;;;4.30;99.90;;;;;;5004635;28;20046;-60
2021/12/04 01:43:32;;;;;;;35.00;22.35;;;4.30;99.90;;;;;;4999119;28;20029;-62
2021/12/04 01:45:58;;;;;;;37.63;22.60;;;4.30;99.90;;;;;;5006394;28;20076;-62
2021/12/04 01:48:24;;;;;;;33.00;20.65;;;4.30;99.90;;;;;;4995347;28;20044;-61
2021/12/04 01:50:52;;;;;;;34.67;20.65;;;4.40;99.90;;;;;;5000108;28;20449;-62
2021/12/04 01:53:19;;;;;;;34.10;21.98;;;4.40;99.90;;;;;;4991785;28;20026;-62
2021/12/04 01:55:45;;;;;;;31.92;21.23;;;4.40;99.90;;;;;;4991451;28;20422;-62
2021/12/04 01:58:12;;;;;;;33.22;20.95;;;4.40;99.90;;;;;;5002883;28;20046;-62
2021/12/04 02:00:40;;;;;;;31.08;20.67;;;4.40;99.90;;;;;;4999836;28;20113;-62
2021/12/04 02:03:08;;;;;;;36.17;21.27;;;4.40;99.90;;;;;;5006307;28;20373;-63
2021/12/04 02:05:38;;;;;;;38.33;22.05;;;4.40;99.90;;;;;;5007908;28;20034;-63
2021/12/04 02:08:15;;;;;;;33.78;21.67;;;4.40;99.90;;;;;;5003582;28;20052;-63
2021/12/04 02:10:41;;;;;;;32.50;20.02;;;4.40;99.90;;;;;;4998307;28;20027;-64
2021/12/04 02:13:07;;;;;;;33.03;20.98;;;4.40;99.90;;;;;;4997000;28;20034;-63
2021/12/04 02:15:33;;;;;;;31.85;20.65;;;4.40;99.90;;;;;;4993905;28;20024;-63
2021/12/04 02:17:58;;;;;;;31.83;20.08;;;4.40;99.90;;;;;;4997438;28;20540;-63
2021/12/04 02:20:29;;;;;;;34.60;21.45;;;4.40;99.90;;;;;;4991590;28;20034;-63
2021/12/04 02:22:56;;;;;;;32.90;21.20;;;4.40;99.90;;;;;;4997822;28;20152;-63
2021/12/04 02:25:21;;;;;;;33.88;21.33;;;4.40;99.90;;;;;;4991869;28;20026;-63
2021/12/04 02:27:48;;;;;;;32.03;21.30;;;4.40;99.90;;;;;;4991966;28;20041;-62
2021/12/04 02:30:17;;;;;;;33.38;20.42;;;4.40;99.90;;;;;;4996968;28;20030;-62
2021/12/04 02:32:43;;;;;;;37.65;22.75;;;4.40;99.90;;;;;;5001671;28;20061;-61
2021/12/04 02:35:10;;;;;;;37.35;22.20;;;4.40;99.90;;;;;;4999912;28;20054;-62
2021/12/04 02:37:38;;;;;;;39.30;23.52;;;4.40;99.90;;;;;;5010383;28;20026;-63
2021/12/04 02:40:06;;;;;;;39.53;23.98;;;4.40;99.90;;;;;;4999710;28;20037;-62
2021/12/04 02:42:32;;;;;;;37.50;22.88;;;4.40;99.90;;;;;;5000544;28;20041;-63
2021/12/04 02:45:01;;;;;;;41.05;24.50;;;4.40;99.90;;;;;;4985481;28;20045;-62
2021/12/04 02:47:28;;;;;;;40.15;24.90;;;4.40;99.90;;;;;;4974791;28;20388;-61
2021/12/04 02:49:55;;;;;;;39.22;24.10;;;4.40;99.90;;;;;;4988439;28;20109;-61
2021/12/04 02:52:22;;;;;;;37.22;22.98;;;4.40;99.90;;;;;;4999820;28;20030;-60
2021/12/04 02:54:50;;;;;;;40.30;24.60;;;4.40;99.90;;;;;;4994600;28;20022;-63
2021/12/04 02:57:17;;;;;;;44.00;24.55;;;4.40;99.90;;;;;;4996554;28;20034;-61
2021/12/04 02:59:43;;;;;;;41.20;26.05;;;4.40;99.90;;;;;;5001881;28;20022;-63
2021/12/04 03:02:19;;;;;;;46.40;26.02;;;4.40;99.90;;;;;;4992872;28;20030;-61
2021/12/04 03:04:48;;;;;;;46.88;26.27;;;4.40;99.90;;;;;;5003138;28;20022;-61
2021/12/04 03:07:14;;;;;;;45.42;24.98;;;4.40;99.90;;;;;;5004765;28;20034;-61
2021/12/04 03:09:40;;;;;;;46.47;26.60;;;4.40;99.90;;;;;;5001661;28;20039;-60
2021/12/04 03:12:07;;;;;;;44.95;26.23;;;4.40;99.90;;;;;;4996213;28;20050;-61
2021/12/04 03:14:33;;;;;;;46.42;26.95;;;4.40;99.90;;;;;;5004418;28;20022;-63
2021/12/04 03:16:59;;;;;;;44.63;26.95;;;4.40;99.90;;;;;;4991546;28;20093;-61
2021/12/04 03:19:25;;;;;;;46.63;27.33;;;4.40;99.90;;;;;;4991603;28;20448;-61
2021/12/04 03:21:51;;;;;;;47.88;28.35;;;4.40;99.90;;;;;;5010131;28;20400;-61
2021/12/04 03:24:19;;;;;;;49.83;27.35;;;4.40;99.90;;;;;;4998961;28;20065;-61
2021/12/04 03:26:46;;;;;;;47.90;27.13;;;4.50;99.90;;;;;;5011219;28;20038;-61
2021/12/04 03:29:16;;;;;;;45.55;27.23;;;4.50;99.90;;;;;;4997928;28;20026;-60
2021/12/04 03:32:06;;;;;;;53.40;28.40;;;4.40;99.90;;;;;;5010676;28;20022;-61
2021/12/04 03:42:36;;;;;;;46.33;27.77;;;4.50;99.90;;;;;;4978664;28;20117;-60
2021/12/04 03:45:03;;;;;;;53.08;30.00;;;4.50;99.90;;;;;;4974527;28;20113;-60
2021/12/04 03:47:30;;;;;;;49.83;29.60;;;4.50;99.90;;;;;;4977688;28;20038;-61
2021/12/04 03:49:56;;;;;;;48.33;28.20;;;4.50;99.90;;;;;;4973315;28;20034;-61
2021/12/04 03:52:22;;;;;;;49.13;29.55;;;4.60;99.90;;;;;;4979382;28;20023;-60
2021/12/04 03:54:47;;;;;;;49.58;28.95;;;4.50;99.90;;;;;;4975667;28;20035;-61
2021/12/04 03:57:13;;;;;;;55.38;30.38;;;4.50;99.90;;;;;;4981003;28;20026;-60
2021/12/04 03:59:41;;;;;;;51.95;30.38;;;4.60;99.90;;;;;;5000140;28;20048;-60
2021/12/04 04:02:10;;;;;;;52.13;29.02;;;4.50;99.90;;;;;;4987562;28;20034;-62
2021/12/04 04:04:36;;;;;;;54.03;30.42;;;4.50;99.90;;;;;;4991823;28;20081;-60
2021/12/04 04:07:02;;;;;;;57.00;30.02;;;4.50;99.90;;;;;;4995378;28;20054;-61
2021/12/04 04:09:29;;;;;;;57.60;31.30;;;4.60;99.90;;;;;;4982931;28;20030;-61
2021/12/04 04:11:55;;;;;;;52.88;30.35;;;4.60;99.90;;;;;;4989007;28;20092;-61
2021/12/04 04:14:22;;;;;;;51.58;29.10;;;4.60;99.90;;;;;;4999221;28;20068;-61
2021/12/04 04:16:48;;;;;;;50.00;29.00;;;4.60;99.90;;;;;;4990664;28;20029;-61
2021/12/04 04:19:14;;;;;;;53.38;30.25;;;4.60;99.90;;;;;;4982852;28;20485;-61
2021/12/04 04:21:41;;;;;;;49.75;27.45;;;4.60;99.90;;;;;;4987319;28;20041;-61
2021/12/04 04:24:12;;;;;;;49.35;28.65;;;4.70;99.90;;;;;;4989267;28;20030;-62
2021/12/04 04:26:39;;;;;;;50.03;28.50;;;4.70;99.90;;;;;;5002604;28;20037;-61
2021/12/04 04:29:06;;;;;;;52.67;29.88;;;4.70;99.90;;;;;;4987613;28;20045;-62
2021/12/04 04:31:33;;;;;;;53.83;30.15;;;4.60;99.90;;;;;;4991071;28;20041;-60
2021/12/04 04:34:07;;;;;;;47.30;27.75;;;4.60;99.90;;;;;;4986931;28;20025;-61
2021/12/04 04:36:48;;;;;;;51.63;29.27;;;4.60;99.90;;;;;;4990680;28;20054;-61
2021/12/04 05:11:22;;;;;;;47.63;27.67;;;4.60;99.90;;;;;;4985200;28;20065;-59
2021/12/04 05:13:48;;;;;;;51.53;27.50;;;4.60;99.90;;;;;;4986947;28;20042;-59
2021/12/04 05:16:16;;;;;;;47.85;26.60;;;4.60;99.90;;;;;;4993796;28;20029;-62
2021/12/04 05:18:52;;;;;;;45.28;26.58;;;4.60;99.90;;;;;;4977169;28;20040;-61
2021/12/04 05:21:18;;;;;;;46.95;27.50;;;4.70;99.90;;;;;;4990945;28;20031;-61
2021/12/04 05:24:03;;;;;;;45.70;26.25;;;4.70;99.90;;;;;;4981581;28;20400;-61
2021/12/04 05:26:29;;;;;;;48.78;27.20;;;4.70;99.90;;;;;;4994584;28;20077;-61
2021/12/04 05:29:01;;;;;;;46.63;27.40;;;4.60;99.90;;;;;;4994367;28;20034;-61
2021/12/04 05:31:28;;;;;;;45.07;26.23;;;4.60;99.90;;;;;;4989163;28;20435;-61
2021/12/04 05:33:54;;;;;;;45.42;26.73;;;4.60;99.90;;;;;;4987388;28;20281;-61
2021/12/04 05:36:20;;;;;;;45.20;26.23;;;4.60;99.90;;;;;;4990376;28;20469;-61
2021/12/04 05:38:46;;;;;;;41.33;24.92;;;4.60;99.90;;;;;;5002973;28;20057;-60
2021/12/04 05:41:12;;;;;;;44.63;25.65;;;4.60;99.90;;;;;;4978953;28;20468;-62
2021/12/04 05:43:37;;;;;;;48.90;27.75;;;4.60;99.90;;;;;;5000108;28;20366;-61
2021/12/04 05:46:17;;;;;;;44.80;24.95;;;4.50;99.90;;;;;;4989864;28;20038;-62
2021/12/04 05:56:49;;;;;;;45.80;26.88;;;4.50;99.90;;;;;;4972671;28;20038;-61
2021/12/04 05:59:14;;;;;;;52.97;26.13;;;4.50;99.90;;;;;;4989456;28;20034;-60
2021/12/04 06:01:40;;;;;;;47.67;27.02;;;4.50;99.90;;;;;;4977610;28;20067;-60
2021/12/04 06:04:06;;;;;;;48.55;26.95;;;4.50;99.90;;;;;;4988649;28;20038;-61
2021/12/04 06:06:31;;;;;;;47.80;27.27;;;4.50;99.90;;;;;;4991225;28;20069;-61
2021/12/04 06:08:57;;;;;;;48.67;27.80;;;4.50;99.90;;;;;;4994179;28;20041;-62
2021/12/04 06:11:23;;;;;;;49.67;26.48;;;4.50;99.90;;;;;;4976151;28;20022;-61
2021/12/04 06:13:48;;;;;;;53.03;26.67;;;4.50;99.90;;;;;;4999491;28;20042;-61
2021/12/04 06:16:15;;;;;;;44.53;25.98;;;4.50;99.90;;;;;;4989641;28;20026;-61
2021/12/04 06:18:41;;;;;;;46.22;25.98;;;4.50;99.90;;;;;;4994002;28;20416;-61
2021/12/04 06:23:51;;;;;;;44.47;25.85;;;4.50;99.90;;;;;;4981838;28;20041;-62
2021/12/04 06:26:17;;;;;;;47.60;25.90;;;4.50;99.90;;;;;;4993005;28;20056;-61
2021/12/04 06:28:43;;;;;;;38.22;23.60;;;4.50;99.90;;;;;;4982591;28;20100;-61
2021/12/04 06:31:10;;;;;;;46.90;24.88;;;4.50;99.90;;;;;;4996204;28;20160;-61
2021/12/04 06:33:38;;;;;;;41.85;24.35;;;4.50;99.90;;;;;;4978264;28;20105;-61
2021/12/04 06:36:04;;;;;;;41.75;23.27;;;4.50;99.90;;;;;;4984556;28;20022;-61
2021/12/04 06:38:30;;;;;;;40.30;23.08;;;4.50;99.90;;;;;;4990085;28;20409;-62
2021/12/04 06:40:56;;;;;;;41.38;22.75;;;4.50;99.90;;;;;;4983143;28;20039;-62
2021/12/04 06:43:22;;;;;;;38.72;23.63;;;4.50;99.90;;;;;;4985724;28;20041;-61
2021/12/04 06:46:01;;;;;;;39.65;22.52;;;4.40;99.90;;;;;;4985193;28;20049;-61
2021/12/04 06:49:08;;;;;;;36.05;21.35;;;4.50;99.90;;;;;;4974078;28;20547;-59
2021/12/04 06:51:25;;;;;;;34.92;20.88;;;4.50;99.90;;;;;;4983984;28;20054;-60
2021/12/04 06:53:59;;;;;;;37.15;22.63;;;4.50;99.90;;;;;;4989584;28;20084;-62
2021/12/04 06:56:32;;;;;;;35.70;21.48;;;4.50;99.90;;;;;;4981801;28;20014;-61
2021/12/04 06:58:58;;;;;;;37.75;22.42;;;4.50;99.90;;;;;;4984407;28;20517;-60
2021/12/04 07:01:23;;;;;;;35.90;21.85;;;4.60;99.90;;;;;;4983125;28;20110;-61
2021/12/04 07:03:51;;;;;;;36.42;22.10;;;4.50;99.90;;;;;;4993342;28;20034;-61
2021/12/04 07:06:16;;;;;;;39.08;21.10;;;4.60;99.90;;;;;;4983714;28;20049;-61
2021/12/04 07:08:42;;;;;;;40.13;23.25;;;4.60;99.90;;;;;;4980702;28;20029;-61
2021/12/04 07:11:08;;;;;;;34.78;20.45;;;4.60;99.90;;;;;;4996779;28;20042;-61
2021/12/04 07:13:34;;;;;;;33.58;19.92;;;4.60;99.90;;;;;;4982347;28;20038;-61
2021/12/04 07:16:03;;;;;;;33.75;19.98;;;4.50;99.90;;;;;;4988949;28;20113;-61
2021/12/04 07:18:29;;;;;;;34.58;20.10;;;4.60;99.90;;;;;;4980278;28;20113;-61
2021/12/04 07:20:55;;;;;;;34.75;19.30;;;4.60;99.90;;;;;;4999159;28;20038;-61
2021/12/04 07:23:21;;;;;;;33.30;19.88;;;4.60;99.90;;;;;;4996631;28;20038;-61
2021/12/04 07:25:47;;;;;;;31.60;19.75;;;4.60;99.90;;;;;;4983147;28;20105;-61
2021/12/04 07:28:12;;;;;;;35.28;20.75;;;4.60;99.90;;;;;;4996453;28;20062;-60
2021/12/04 07:30:38;;;;;;;31.98;20.00;;;4.60;99.90;;;;;;4984259;28;20056;-61
2021/12/04 07:33:04;;;;;;;33.08;19.33;;;4.60;99.90;;;;;;4996441;28;20033;-61
2021/12/04 07:35:29;;;;;;;32.75;19.00;;;4.60;99.90;;;;;;4976934;28;20038;-61
2021/12/04 07:37:55;;;;;;;28.85;17.63;;;4.60;99.90;;;;;;4998528;28;20026;-64
2021/12/04 07:40:21;;;;;;;32.28;19.70;;;4.60;99.90;;;;;;4972050;28;20168;-61
2021/12/04 07:42:47;;;;;;;33.40;18.67;;;4.60;99.90;;;;;;4993748;28;20032;-62
2021/12/04 07:45:13;;;;;;;32.67;19.27;;;4.60;99.90;;;;;;4985013;28;20030;-61
2021/12/04 07:47:38;;;;;;;29.40;17.60;;;4.60;99.90;;;;;;4987433;28;20050;-62
2021/12/04 07:50:06;;;;;;;26.65;17.05;;;4.60;99.90;;;;;;4984560;28;20113;-62
2021/12/04 07:52:32;;;;;;;28.17;17.40;;;4.60;99.90;;;;;;5002075;28;20045;-61
2021/12/04 07:54:58;;;;;;;29.25;18.27;;;4.60;99.90;;;;;;4997030;28;20040;-62
2021/12/04 07:57:25;;;;;;;34.22;19.55;;;4.60;99.90;;;;;;4981953;28;20409;-60
2021/12/04 07:59:51;;;;;;;32.63;19.45;;;4.70;99.90;;;;;;4996163;28;20029;-62
2021/12/04 08:02:17;;;;;;;32.88;20.00;;;4.70;99.90;;;;;;4992900;28;20077;-61
2021/12/04 08:04:42;;;;;;;34.03;19.73;;;4.70;99.90;;;;;;4992868;28;20109;-61
2021/12/04 08:07:08;;;;;;;29.50;18.88;;;4.60;99.90;;;;;;4993187;28;20049;-60
2021/12/04 08:09:34;;;;;;;32.88;18.55;;;4.70;99.90;;;;;;4990082;28;20027;-60
2021/12/04 08:11:59;;;;;;;33.72;18.67;;;4.70;99.90;;;;;;4992675;28;20033;-61
2021/12/04 08:14:25;;;;;;;35.05;19.20;;;4.70;99.90;;;;;;4989931;28;20369;-60
2021/12/04 08:16:51;;;;;;;33.13;19.67;;;4.70;99.90;;;;;;4990946;28;20117;-61
2021/12/04 08:19:16;;;;;;;36.63;19.75;;;4.70;99.90;;;;;;4977745;28;20054;-61
2021/12/04 08:21:42;;;;;;;36.10;19.63;;;4.70;99.90;;;;;;4983275;28;20085;-61
2021/12/04 08:24:08;;;;;;;33.63;19.20;;;4.70;99.90;;;;;;4995986;28;20612;-60
2021/12/04 08:26:35;;;;;;;34.08;19.30;;;4.70;99.90;;;;;;4975764;28;20450;-60
2021/12/04 08:29:00;;;;;;;32.80;18.77;;;4.70;99.90;;;;;;4982582;28;20046;-61
2021/12/04 08:31:26;;;;;;;32.35;19.00;;;4.60;99.90;;;;;;4987198;28;20085;-61
2021/12/04 08:33:52;;;;;;;34.80;19.75;;;4.80;99.90;;;;;;4978589;28;20026;-62
2021/12/04 08:36:18;;;;;;;36.40;19.50;;;4.60;99.90;;;;;;4988086;28;20045;-62
2021/12/04 08:38:47;;;;;;;31.08;18.88;;;4.60;99.90;;;;;;4975889;28;20066;-61
2021/12/04 08:41:14;;;;;;;34.20;20.75;;;4.70;99.90;;;;;;4993525;28;20404;-62
2021/12/04 08:43:40;;;;;;;36.35;19.77;;;4.70;99.90;;;;;;4986640;28;20046;-61
2021/12/04 08:46:06;;;;;;;30.17;18.02;;;4.70;99.90;;;;;;4982163;28;20040;-61
2021/12/04 08:48:33;;;;;;;30.98;18.52;;;4.80;99.90;;;;;;4985492;28;20038;-61
2021/12/04 08:51:00;;;;;;;32.28;18.73;;;4.80;99.90;;;;;;4990856;28;20129;-61
2021/12/04 08:53:26;;;;;;;29.80;16.52;;;4.80;99.90;;;;;;4997665;28;20031;-59
2021/12/04 08:55:52;;;;;;;30.38;18.05;;;4.80;99.90;;;;;;4984000;28;20484;-61
2021/12/04 08:58:19;;;;;;;30.63;17.80;;;4.80;99.90;;;;;;4982149;28;20042;-61
2021/12/04 09:00:59;;;;;;;28.65;16.65;;;4.90;99.90;;;;;;4979455;28;20062;-61
2021/12/04 09:03:32;;;;;;;29.77;17.73;;;4.80;99.90;;;;;;4983983;28;20030;-61
2021/12/04 09:05:59;;;;;;;46.45;20.10;;;4.90;99.90;;;;;;4982456;28;20073;-61
2021/12/04 09:08:27;;;;;;;34.28;18.95;;;4.90;99.90;;;;;;4980326;28;20035;-61
2021/12/04 09:10:56;;;;;;;34.42;18.33;;;4.90;99.90;;;;;;5009602;28;20034;-61
2021/12/04 09:13:22;;;;;;;32.58;18.58;;;4.90;99.90;;;;;;4984117;28;20581;-62
2021/12/04 09:15:49;;;;;;;35.47;19.35;;;5.00;99.90;;;;;;4985836;28;20069;-61
2021/12/04 09:18:14;;;;;;;34.55;18.42;;;5.00;99.90;;;;;;4987657;28;20026;-61
2021/12/04 09:20:40;;;;;;;29.80;16.40;;;5.10;99.90;;;;;;4984308;28;20386;-60
2021/12/04 09:23:13;;;;;;;32.22;19.00;;;5.00;99.90;;;;;;4981196;28;20045;-61
2021/12/04 09:25:42;;;;;;;31.80;18.38;;;5.00;99.90;;;;;;4985445;28;20034;-61
2021/12/04 09:28:18;;;;;;;35.63;20.45;;;5.00;99.90;;;;;;4983361;28;20034;-62
2021/12/04 10:15:33;;;;;;;40.63;20.70;;;4.90;99.90;;;;;;4949707;28;20106;-61
2021/12/04 10:34:36;;;;;;;36.15;18.73;;;4.90;99.90;;;;;;4993499;28;20105;-55
2021/12/04 10:37:11;;;;;;;32.33;18.40;;;4.90;99.90;;;;;;4982058;28;20500;-62
2021/12/04 10:39:37;;;;;;;31.38;17.60;;;5.00;99.90;;;;;;4985960;28;20031;-62
2021/12/04 10:42:09;;;;;;;32.28;15.50;;;4.90;99.90;;;;;;4993082;28;20101;-61
2021/12/04 10:44:39;;;;;;;28.33;15.48;;;5.00;99.90;;;;;;4988023;28;20042;-60
2021/12/04 10:47:08;;;;;;;33.47;17.83;;;5.00;99.90;;;;;;4997506;28;20027;-60
2021/12/04 10:49:53;;;;;;;31.23;17.63;;;5.00;99.90;;;;;;4983754;28;20049;-60
2021/12/04 10:52:48;;;;;;;37.35;19.85;;;4.90;99.90;;;;;;4993751;28;20492;-61
2021/12/04 11:01:37;;;;;;;31.13;17.77;;;5.00;99.90;;;;;;4975773;28;20073;-60
2021/12/04 11:18:48;;;;;;;27.05;15.05;;;5.10;99.90;;;;;;4989583;28;20040;-58
2021/12/04 11:43:46;;;;;;;32.05;17.38;;;5.20;99.90;;;;;;4987559;28;20026;-63
2021/12/04 11:46:20;;;;;;;30.05;17.40;;;5.20;99.90;;;;;;4991468;28;20742;-63
2021/12/04 11:48:46;;;;;;;33.35;19.45;;;5.20;99.90;;;;;;5004299;28;20038;-62
2021/12/04 11:51:20;;;;;;;31.38;18.25;;;5.20;99.90;;;;;;4990696;28;20027;-64
2021/12/04 11:53:46;;;;;;;32.72;18.80;;;5.20;99.90;;;;;;4988515;28;20460;-63
2021/12/04 11:56:14;;;;;;;37.20;19.55;;;5.10;99.90;;;;;;4984517;28;20061;-63
2021/12/04 11:58:43;;;;;;;32.08;18.27;;;5.10;99.90;;;;;;4989523;28;20034;-62
2021/12/04 12:01:28;;;;;;;34.25;17.23;;;5.10;99.90;;;;;;4986838;28;20038;-63
2021/12/04 12:03:56;;;;;;;28.83;17.00;;;5.10;99.90;;;;;;4995957;28;20037;-63
2021/12/04 12:06:37;;;;;;;29.00;17.58;;;5.20;99.90;;;;;;4982839;28;20034;-62
2021/12/04 12:09:17;;;;;;;30.60;17.40;;;5.20;99.90;;;;;;4999386;28;20041;-62
2021/12/04 12:11:52;;;;;;;30.30;16.77;;;5.10;99.90;;;;;;4987936;28;20465;-62
2021/12/04 12:14:23;;;;;;;31.30;18.08;;;5.10;99.90;;;;;;4993818;28;20030;-62
2021/12/04 12:16:53;;;;;;;31.63;18.02;;;5.20;99.90;;;;;;4983225;28;20034;-62
2021/12/04 12:19:35;;;;;;;26.48;16.73;;;5.20;99.90;;;;;;4993360;28;20480;-62
2021/12/04 12:22:07;;;;;;;21.70;13.43;;;5.20;99.90;;;;;;4981561;28;20053;-60
2021/12/04 12:27:20;;;;;;;25.65;13.95;;;5.20;99.90;;;;;;4985894;28;20056;-61
2021/12/04 12:38:32;;;;;;;24.38;14.90;;;5.10;99.90;;;;;;5001058;28;20095;-62
2021/12/04 12:41:07;;;;;;;25.52;15.45;;;5.10;99.90;;;;;;4998897;28;20396;-62
2021/12/04 12:43:41;;;;;;;27.70;14.82;;;5.10;99.90;;;;;;4987891;28;20062;-62
2021/12/04 12:46:08;;;;;;;25.55;15.50;;;5.10;99.90;;;;;;4987365;28;20019;-62
2021/12/04 12:48:54;;;;;;;24.17;14.65;;;5.10;99.90;;;;;;4987926;28;20049;-62
2021/12/04 12:51:25;;;;;;;28.08;16.08;;;5.10;99.90;;;;;;4984768;28;20468;-61
2021/12/04 12:53:51;;;;;;;26.00;15.27;;;5.10;99.90;;;;;;4972276;28;20038;-61
2021/12/04 12:56:20;;;;;;;28.25;16.70;;;5.10;99.90;;;;;;4968370;28;20026;-58
2021/12/04 12:59:03;;;;;;;31.10;18.60;;;5.10;99.90;;;;;;4968163;28;20473;-62
2021/12/04 13:13:37;;;;;;;30.00;17.27;;;5.10;99.90;;;;;;4990155;28;20117;-59
2021/12/04 13:16:30;;;;;;;27.02;16.45;;;5.10;99.90;;;;;;4995530;28;20029;-57
2021/12/04 13:18:58;;;;;;;;;;;5.10;99.90;;;;;;4991461;28;20576;-60
2021/12/04 13:21:25;;;;;;;28.25;16.73;;;5.10;99.90;;;;;;4991927;28;19918;-60
2021/12/04 13:23:56;;;;;;;26.67;16.15;;;5.20;99.90;;;;;;4994232;28;20113;-60
2021/12/04 13:26:28;;;;;;;26.73;16.13;;;5.30;99.90;;;;;;5006273;28;20033;-60
2021/12/04 13:28:54;;;;;;;25.08;14.70;;;5.30;99.90;;;;;;5008917;28;20411;-60
2021/12/04 13:31:20;;;;;;;25.73;14.13;;;5.30;99.90;;;;;;5009269;28;20049;-59
2021/12/04 13:33:49;;;;;;;22.45;14.48;;;5.30;99.90;;;;;;5009444;28;20033;-60
2021/12/04 13:36:18;;;;;;;22.92;14.25;;;5.30;99.90;;;;;;5009085;28;20030;-60
2021/12/04 13:38:44;;;;;;;21.42;14.00;;;5.30;99.90;;;;;;5008973;28;20040;-60
2021/12/04 13:41:11;;;;;;;26.73;15.70;;;5.30;99.90;;;;;;5009343;28;20038;-60
2021/12/04 13:43:37;;;;;;;27.88;16.70;;;5.30;99.90;;;;;;5009299;28;20099;-60
2021/12/04 13:46:05;;;;;;;37.58;19.20;;;5.20;99.90;;;;;;5009988;28;20034;-60
2021/12/04 13:48:33;;;;;;;38.17;20.30;;;5.20;99.90;;;;;;5009084;28;20025;-61
2021/12/04 13:50:59;;;;;;;34.88;20.63;;;5.20;99.90;;;;;;5012276;28;20488;-61
2021/12/04 13:53:51;;;;;;;37.03;19.83;;;5.20;99.90;;;;;;5012774;28;20042;-59
2021/12/04 13:56:19;;;;;;;36.28;20.40;;;5.20;99.90;;;;;;5010288;28;20034;-61
2021/12/04 13:58:52;;;;;;;33.97;20.33;;;5.20;99.90;;;;;;5012662;28;20474;-60
2021/12/04 14:01:19;;;;;;;30.42;19.88;;;5.10;99.90;;;;;;5011339;28;20423;-59
2021/12/04 14:03:47;;;;;;;37.00;19.38;;;5.10;99.90;;;;;;5012955;28;20171;-59
2021/12/04 14:06:16;;;;;;;32.22;18.92;;;5.10;99.90;;;;;;5012801;28;20033;-59
2021/12/04 14:08:43;;;;;;;36.67;20.48;;;5.10;99.90;;;;;;5012261;28;20431;-59
2021/12/04 14:11:09;;;;;;;32.45;18.58;;;5.10;99.90;;;;;;5012308;28;20049;-60
2021/12/04 14:13:38;;;;;;;34.75;19.77;;;5.00;99.90;;;;;;5011399;28;20029;-60
2021/12/04 14:16:05;;;;;;;36.80;19.70;;;5.10;99.90;;;;;;5012185;28;20040;-60
2021/12/04 14:18:34;;;;;;;35.45;18.42;;;5.00;99.90;;;;;;5012720;28;20044;-60
2021/12/04 14:21:01;;;;;;;37.80;19.33;;;5.10;99.90;;;;;;5012649;28;20026;-60
2021/12/04 14:23:29;;;;;;;34.40;18.52;;;5.00;99.90;;;;;;5013116;28;20079;-60
2021/12/04 14:25:55;;;;;;;29.02;18.27;;;5.00;99.90;;;;;;5012747;28;20061;-60
2021/12/04 14:28:33;;;;;;;32.47;19.27;;;5.00;99.90;;;;;;5011714;28;20060;-60
2021/12/04 14:30:58;;;;;;;32.33;19.17;;;5.10;99.90;;;;;;5012577;28;20034;-60
2021/12/04 14:33:26;;;;;;;27.55;16.92;;;5.10;99.90;;;;;;5012357;28;20563;-60
2021/12/04 14:35:54;;;;;;;28.20;17.80;;;5.10;99.90;;;;;;5012240;28;20057;-59
2021/12/04 14:38:24;;;;;;;29.38;17.95;;;5.10;99.90;;;;;;5011836;28;20061;-60
2021/12/04 14:41:04;;;;;;;29.92;18.25;;;5.10;99.90;;;;;;5012533;28;20052;-60
2021/12/04 14:43:34;;;;;;;29.27;18.05;;;5.10;99.90;;;;;;5012665;28;20026;-60
2021/12/04 14:46:01;;;;;;;31.52;17.83;;;5.10;99.90;;;;;;5012212;28;20018;-59
2021/12/04 14:48:33;;;;;;;27.35;16.95;;;5.10;99.90;;;;;;5012087;28;20032;-59
2021/12/04 14:51:06;;;;;;;30.50;16.50;;;5.10;99.90;;;;;;5012192;28;20022;-59
2021/12/04 14:53:39;;;;;;;24.83;14.57;;;5.10;99.90;;;;;;5012044;28;20539;-61
2021/12/04 14:56:08;;;;;;;24.80;15.23;;;5.10;99.90;;;;;;5012025;28;20405;-59
2021/12/04 14:58:34;;;;;;;25.17;14.38;;;5.10;99.90;;;;;;5012051;28;20113;-58
2021/12/04 15:01:12;;;;;;;22.55;14.23;;;5.10;99.90;;;;;;5011935;28;20021;-59
2021/12/04 15:03:43;;;;;;;23.75;14.88;;;5.10;99.90;;;;;;5012159;28;20036;-57
2021/12/04 15:06:12;;;;;;;21.55;14.10;;;5.10;99.90;;;;;;5011959;28;20048;-59
2021/12/04 15:09:04;;;;;;;30.17;15.05;;;5.10;99.90;;;;;;5011861;28;20412;-58
2021/12/04 15:11:34;;;;;;;29.20;15.43;;;5.10;99.90;;;;;;5007722;28;20456;-59
2021/12/04 15:14:11;;;;;;;29.33;15.80;;;5.10;99.90;;;;;;5012238;28;20054;-59
2021/12/04 15:16:50;;;;;;;31.08;16.65;;;5.10;99.90;;;;;;5012093;28;20018;-59
2021/12/04 15:19:27;;;;;;;33.67;17.77;;;5.10;99.90;;;;;;5011288;28;20087;-59
2021/12/04 15:21:58;;;;;;;33.50;18.38;;;5.10;99.90;;;;;;5011507;28;20034;-60
2021/12/04 15:24:38;;;;;;;41.25;18.77;;;5.00;99.90;;;;;;5011093;28;20120;-59
2021/12/04 15:27:15;;;;;;;35.15;18.42;;;5.00;99.90;;;;;;5010946;28;20038;-59
2021/12/04 15:29:44;;;;;;;40.90;18.70;;;5.00;99.90;;;;;;5010592;28;20033;-59
2021/12/04 15:32:14;;;;;;;38.03;18.20;;;5.00;99.90;;;;;;5010991;28;20029;-59
2021/12/04 15:34:53;;;;;;;37.78;19.27;;;5.10;99.90;;;;;;5011346;28;20511;-59
2021/12/04 15:37:27;;;;;;;36.90;19.33;;;5.10;99.90;;;;;;5011157;28;20499;-61
2021/12/04 15:39:53;;;;;;;35.20;19.17;;;5.00;99.90;;;;;;5010275;28;20030;-59
2021/12/04 15:42:35;;;;;;;39.30;19.10;;;5.10;99.90;;;;;;5010995;28;20518;-58
2021/12/04 15:53:14;;;;;;;29.25;17.13;;;5.00;99.90;;;;;;5010612;28;20101;-60
2021/12/04 15:55:47;;;;;;;27.85;15.65;;;5.10;99.90;;;;;;5010801;28;20029;-59
2021/12/04 15:58:25;;;;;;;26.38;15.57;;;5.10;99.90;;;;;;5010060;28;20583;-60
2021/12/04 16:01:02;;;;;;;27.40;14.98;;;5.10;99.90;;;;;;5010823;28;20098;-60
2021/12/04 16:03:28;;;;;;;22.52;14.38;;;5.00;99.90;;;;;;5010874;28;20030;-60
2021/12/04 16:05:57;;;;;;;23.73;14.00;;;5.00;99.90;;;;;;5010370;28;20081;-60
2021/12/04 16:08:25;;;;;;;22.85;14.18;;;5.00;99.90;;;;;;5009833;28;20035;-59